createdAt,value
2023-03-12T00:04:07.370Z,100.00
2023-03-12T00:09:12.065Z,100.00
2023-03-12T00:14:17.802Z,100.00
2023-03-12T00:19:21.926Z,100.00
2023-03-12T00:24:26.265Z,100.00
2023-03-12T00:29:32.337Z,100.00
2023-03-12T00:34:36.810Z,100.00
2023-03-12T00:39:41.237Z,100.00
2023-03-12T00:44:46.846Z,100.00
2023-03-12T00:49:51.346Z,100.00
2023-03-12T00:54:58.493Z,100.00
2023-03-12T01:00:07.094Z,100.00
2023-03-12T01:05:14.499Z,100.00
2023-03-12T01:10:20.050Z,100.00
2023-03-12T01:15:26.019Z,100.00
2023-03-12T01:20:30.373Z,100.00
2023-03-12T01:25:35.006Z,100.00
2023-03-12T01:30:40.752Z,100.00
2023-03-12T01:35:45.298Z,100.00
2023-03-12T01:40:49.693Z,100.00
2023-03-12T01:46:23.127Z,100.00
2023-03-12T01:51:32.001Z,100.00
2023-03-12T01:56:37.880Z,100.00
2023-03-12T02:01:44.705Z,100.00
2023-03-12T02:06:54.764Z,100.00
2023-03-12T02:11:59.133Z,100.00
2023-03-12T02:17:06.114Z,100.00
2023-03-12T02:22:11.418Z,100.00
2023-03-12T02:27:19.546Z,100.00
2023-03-12T02:32:28.219Z,100.00
2023-03-12T02:37:32.886Z,100.00
2023-03-12T02:42:39.403Z,100.00
2023-03-12T02:47:43.892Z,100.00
2023-03-12T02:52:48.783Z,100.00
2023-03-12T02:57:54.374Z,100.00
2023-03-12T03:03:00.103Z,100.00
2023-03-12T03:08:04.909Z,100.00
2023-03-12T03:13:10.701Z,100.00
2023-03-12T03:18:15.261Z,100.00
2023-03-12T03:23:19.702Z,100.00
2023-03-12T03:28:27.261Z,100.00
2023-03-12T03:33:35.076Z,100.00
2023-03-12T03:38:39.957Z,100.00
2023-03-12T03:43:46.124Z,100.00
2023-03-12T03:48:52.684Z,100.00
2023-03-12T03:54:00.590Z,100.00
2023-03-12T03:59:07.525Z,100.00
2023-03-12T04:04:14.980Z,100.00
2023-03-12T04:09:19.765Z,100.00
2023-03-12T04:14:25.701Z,100.00
2023-03-12T04:19:30.582Z,100.00
2023-03-12T04:24:35.043Z,100.00
2023-03-12T04:29:42.276Z,100.00
2023-03-12T04:34:46.973Z,100.00
2023-03-12T04:39:53.588Z,100.00
2023-03-12T04:44:59.508Z,100.00
2023-03-12T04:50:04.153Z,100.00
2023-03-12T04:55:10.286Z,100.00
2023-03-12T05:00:17.764Z,100.00
2023-03-12T05:05:23.509Z,100.00
2023-03-12T05:10:28.434Z,100.00
2023-03-12T05:15:38.525Z,100.00
2023-03-12T05:20:42.716Z,99.80
2023-03-12T05:25:47.032Z,99.09
2023-03-12T05:30:52.699Z,98.27
2023-03-12T05:35:56.716Z,97.36
2023-03-12T05:41:01.240Z,96.47
2023-03-12T05:46:11.118Z,95.56
2023-03-12T05:51:15.548Z,94.63
2023-03-12T05:56:20.289Z,93.47
2023-03-12T06:01:26.986Z,93.59
2023-03-12T06:06:33.383Z,92.86
2023-03-12T06:11:37.549Z,90.86
2023-03-12T06:16:43.211Z,89.15
2023-03-12T06:21:47.397Z,89.49
2023-03-12T06:26:51.871Z,89.09
2023-03-12T06:31:57.409Z,88.87
2023-03-12T06:37:01.540Z,87.96
2023-03-12T06:42:06.001Z,85.51
2023-03-12T06:47:11.498Z,83.77
2023-03-12T06:52:15.507Z,85.06
2023-03-12T06:57:19.465Z,84.24
2023-03-12T07:02:24.975Z,80.56
2023-03-12T07:07:29.149Z,76.33
2023-03-12T07:12:33.312Z,79.71
2023-03-12T07:17:39.370Z,78.07
2023-03-12T07:22:43.507Z,73.87
2023-03-12T07:27:48.000Z,63.27
2023-03-12T07:32:53.867Z,49.90
2023-03-12T07:37:58.295Z,49.82
2023-03-12T07:43:02.986Z,47.20
2023-03-12T07:48:11.104Z,45.85
2023-03-12T07:53:15.679Z,49.80
2023-03-12T07:58:19.910Z,52.12
2023-03-12T08:03:26.092Z,47.35
2023-03-12T08:08:31.280Z,51.03
2023-03-12T08:13:35.980Z,51.62
2023-03-12T08:18:43.213Z,52.15
2023-03-12T08:23:47.480Z,50.33
2023-03-12T08:28:53.110Z,48.91
2023-03-12T08:33:59.021Z,50.39
2023-03-12T08:39:03.031Z,49.75
2023-03-12T08:44:07.054Z,50.98
2023-03-12T08:49:12.352Z,53.80
2023-03-12T08:54:16.673Z,53.63
2023-03-12T08:59:22.539Z,53.26
2023-03-12T09:04:27.895Z,50.37
2023-03-12T09:09:32.354Z,52.31
2023-03-12T09:15:02.531Z,53.32
2023-03-12T09:20:01.709Z,54.61
2023-03-12T09:25:05.921Z,51.60
2023-03-12T09:30:11.695Z,50.68
2023-03-12T09:35:17.751Z,51.28
2023-03-12T09:40:23.930Z,50.95
2023-03-12T09:45:29.178Z,51.72
2023-03-12T09:50:35.342Z,50.86
2023-03-12T09:55:41.290Z,52.58
2023-03-12T10:00:47.540Z,52.24
2023-03-12T10:06:04.166Z,52.70
2023-03-12T10:11:17.369Z,53.24
2023-03-12T10:16:28.359Z,49.78
2023-03-12T10:21:37.819Z,49.75
2023-03-12T10:26:44.194Z,48.92
2023-03-12T10:31:54.652Z,49.66
2023-03-12T10:37:04.298Z,52.04
2023-03-12T10:42:13.931Z,51.38
2023-03-12T10:47:27.224Z,51.34
2023-03-12T10:52:33.007Z,49.89
2023-03-12T10:57:41.334Z,48.82
2023-03-12T11:02:46.166Z,50.87
2023-03-12T11:07:52.876Z,49.48
2023-03-12T11:13:03.983Z,51.45
2023-03-12T11:18:21.932Z,51.33
2023-03-12T11:23:29.892Z,50.97
2023-03-12T11:28:38.333Z,51.97
2023-03-12T11:33:43.029Z,49.33
2023-03-12T11:38:52.279Z,49.82
2023-03-12T11:44:05.601Z,51.27
2023-03-12T11:49:21.903Z,52.67
2023-03-12T11:54:40.539Z,51.14
2023-03-12T11:59:55.076Z,50.79
2023-03-12T12:05:22.833Z,51.89
2023-03-12T12:10:31.462Z,51.60
2023-03-12T12:15:39.145Z,50.08
2023-03-12T12:20:46.867Z,50.74
2023-03-12T12:26:06.215Z,51.07
2023-03-12T12:31:19.217Z,51.24
2023-03-12T12:36:25.865Z,50.18
2023-03-12T12:41:34.228Z,48.25
2023-03-12T12:46:40.591Z,46.37
2023-03-12T12:51:45.799Z,48.07
2023-03-12T12:56:52.774Z,46.64
2023-03-12T13:01:57.698Z,47.89
2023-03-12T13:07:03.121Z,47.22
2023-03-12T13:12:16.286Z,45.21
2023-03-12T13:17:31.109Z,45.30
2023-03-12T13:23:02.385Z,44.93
2023-03-12T13:28:21.073Z,44.76
2023-03-12T13:33:40.562Z,45.90
2023-03-12T13:38:54.507Z,45.53
2023-03-12T13:43:58.337Z,45.38
2023-03-12T18:21:01.041Z,56.97
2023-03-12T18:26:06.001Z,57.73
2023-03-12T18:31:10.552Z,57.67
2023-03-12T18:36:16.412Z,57.07
2023-03-12T18:41:20.535Z,57.52
2023-03-12T18:46:25.179Z,57.49
2023-03-12T18:51:31.546Z,57.84
2023-03-12T18:56:39.392Z,57.10
2023-03-12T19:01:44.770Z,55.93
2023-03-12T19:06:51.962Z,54.80
2023-03-12T19:11:57.374Z,54.10
2023-03-12T19:17:01.790Z,54.78
2023-03-12T19:22:07.803Z,54.85
2023-03-12T19:27:12.775Z,54.51
2023-03-12T19:32:17.494Z,54.71
2023-03-12T19:37:23.462Z,54.22
2023-03-12T19:42:28.011Z,54.31
2023-03-12T19:47:33.399Z,54.02
2023-03-12T19:52:39.009Z,54.04
2023-03-12T19:57:43.514Z,53.09
2023-03-12T20:02:48.238Z,53.61
2023-03-12T20:07:53.985Z,53.28
2023-03-12T20:12:58.702Z,53.29
2023-03-12T20:18:02.837Z,53.53
2023-03-12T20:23:09.680Z,53.73
2023-03-12T20:28:14.035Z,53.89
2023-03-12T20:33:18.597Z,54.27
2023-03-12T20:38:24.115Z,53.95
2023-03-12T20:43:28.356Z,54.08
2023-03-12T20:48:32.685Z,53.90
2023-03-12T20:53:38.320Z,53.86
2023-03-12T20:58:42.469Z,53.05
2023-03-12T21:03:47.490Z,52.95
2023-03-12T21:08:53.221Z,53.23
2023-03-12T21:13:57.861Z,53.55
2023-03-12T21:19:02.077Z,53.46
2023-03-12T21:24:08.262Z,53.58
2023-03-12T21:29:12.723Z,53.95
2023-03-12T21:34:17.050Z,53.72
2023-03-12T21:39:23.133Z,54.34
2023-03-12T21:44:27.341Z,54.44
2023-03-12T21:49:32.042Z,55.07
2023-03-12T21:54:38.103Z,55.02
2023-03-12T21:59:42.646Z,55.54
2023-03-12T22:04:46.750Z,56.07
2023-03-12T22:09:52.337Z,55.89
2023-03-12T22:14:56.558Z,56.64
2023-03-12T22:20:01.096Z,56.94
2023-03-12T22:25:07.938Z,56.71
2023-03-12T22:30:14.900Z,56.81
2023-03-12T22:35:25.881Z,57.57
2023-03-12T22:40:31.678Z,57.73
2023-03-12T22:45:36.284Z,58.66
2023-03-12T22:50:40.445Z,59.25
2023-03-12T22:55:46.416Z,60.13
2023-03-12T23:00:50.880Z,60.75
2023-03-12T23:05:55.302Z,61.46
2023-03-12T23:11:03.188Z,62.65
2023-03-12T23:16:10.144Z,63.57
2023-03-12T23:21:17.313Z,64.20
2023-03-12T23:26:24.927Z,64.82
2023-03-12T23:31:30.546Z,65.45
2023-03-12T23:36:34.906Z,66.50
2023-03-12T23:41:40.940Z,67.12
2023-03-12T23:46:45.648Z,68.27
2023-03-12T23:51:50.069Z,68.99
2023-03-12T23:56:56.488Z,70.17
